createdAt,value
2022-09-23T00:30:32.282Z,9.86
2022-09-23T00:30:32.303Z,9.84
2022-09-23T00:30:38.036Z,9.65
2022-09-23T00:35:36.522Z,10
2022-09-23T00:35:40.287Z,10
2022-09-23T00:40:01.681Z,10.22
2022-09-23T00:40:01.716Z,10.22
2022-09-23T00:45:01.162Z,10.24
2022-09-23T00:45:02.143Z,10.24
2022-09-23T00:50:01.174Z,10.3
2022-09-23T00:50:01.799Z,10.3
2022-09-23T00:55:01.565Z,10.36
2022-09-23T00:55:01.575Z,10.36
2022-09-23T01:00:01.272Z,10.36
2022-09-23T01:00:02.149Z,10.36
2022-09-23T01:05:01.707Z,10.43
2022-09-23T01:05:02.004Z,10.43
2022-09-23T01:10:01.241Z,10.39
2022-09-23T01:10:02.059Z,10.39
2022-09-23T01:15:01.207Z,10.37
2022-09-23T01:15:02.299Z,10.37
2022-09-23T01:20:01.317Z,10.37
2022-09-23T01:20:01.341Z,10.37
2022-09-23T01:25:01.608Z,10.4
2022-09-23T01:25:01.772Z,10.4
2022-09-23T01:30:01.396Z,10.4
2022-09-23T01:30:01.614Z,10.4
2022-09-23T01:35:01.858Z,10.36
2022-09-23T01:35:02.075Z,10.36
2022-09-23T01:40:01.470Z,10.12
2022-09-23T01:40:02.860Z,10.12
2022-09-23T01:45:01.589Z,9.9
2022-09-23T01:45:01.847Z,9.9
2022-09-23T01:50:01.334Z,9.62
2022-09-23T01:50:01.421Z,9.62
2022-09-23T01:55:01.850Z,9.33
2022-09-23T01:55:01.943Z,9.33
2022-09-23T02:00:01.549Z,8.82
2022-09-23T02:00:01.954Z,8.82
2022-09-23T02:05:01.599Z,8.45
2022-09-23T02:05:02.163Z,8.45
2022-09-23T02:10:01.281Z,8.24
2022-09-23T02:10:02.110Z,8.24
2022-09-23T02:15:01.524Z,8.06
2022-09-23T02:15:01.765Z,8.06
2022-09-23T02:20:01.579Z,7.93
2022-09-23T02:20:02.048Z,7.93
2022-09-23T02:25:01.960Z,7.85
2022-09-23T02:25:01.985Z,7.85
2022-09-23T02:30:01.147Z,7.73
2022-09-23T02:30:01.403Z,7.73
2022-09-23T02:35:01.299Z,7.58
2022-09-23T02:35:02.340Z,7.58
2022-09-23T02:40:01.451Z,7.54
2022-09-23T02:40:02.277Z,7.54
2022-09-23T02:45:01.354Z,7.45
2022-09-23T02:45:01.508Z,7.45
2022-09-23T02:50:01.161Z,7.37
2022-09-23T02:50:01.410Z,7.37
2022-09-23T02:55:01.617Z,7.4
2022-09-23T02:55:02.265Z,7.4
2022-09-23T03:00:01.705Z,7.43
2022-09-23T03:00:02.091Z,7.43
2022-09-23T03:05:01.316Z,7.73
2022-09-23T03:05:02.275Z,7.73
2022-09-23T03:10:01.482Z,8.26
2022-09-23T03:10:02.081Z,8.26
2022-09-23T03:15:01.211Z,8.66
2022-09-23T03:15:02.129Z,8.66
2022-09-23T03:20:01.303Z,8.76
2022-09-23T03:20:02.162Z,8.76
2022-09-23T03:25:01.495Z,8.98
2022-09-23T03:25:01.894Z,8.98
2022-09-23T03:30:01.599Z,8.98
2022-09-23T03:30:01.763Z,8.98
2022-09-23T03:35:01.164Z,9.03
2022-09-23T03:35:01.666Z,9.03
2022-09-23T03:40:01.622Z,8.78
2022-09-23T03:40:01.936Z,8.78
2022-09-23T03:45:01.466Z,8.55
2022-09-23T03:45:01.555Z,8.55
2022-09-23T03:50:01.158Z,8.51
2022-09-23T03:50:01.907Z,8.51
2022-09-23T03:55:02.007Z,8.28
2022-09-23T03:55:02.037Z,8.28
2022-09-23T04:00:01.435Z,8.13
2022-09-23T04:00:01.941Z,8.13
2022-09-23T04:05:01.670Z,8.16
2022-09-23T04:05:01.834Z,8.16
2022-09-23T04:10:01.535Z,8.03
2022-09-23T04:10:01.601Z,8.03
2022-09-23T04:15:01.801Z,8.28
2022-09-23T04:15:01.964Z,8.28
2022-09-23T04:20:01.273Z,8.65
2022-09-23T04:20:01.421Z,8.65
2022-09-23T04:25:01.693Z,8.92
2022-09-23T04:25:01.864Z,8.92
2022-09-23T04:30:01.653Z,9
2022-09-23T04:30:01.855Z,9
2022-09-23T04:35:01.880Z,9.09
2022-09-23T04:35:02.072Z,9.09
2022-09-23T04:40:01.412Z,9.11
2022-09-23T04:40:02.025Z,9.11
2022-09-23T04:45:01.983Z,8.82
2022-09-23T04:45:02.197Z,8.82
2022-09-23T04:50:02.121Z,8.14
2022-09-23T04:50:02.125Z,8.14
2022-09-23T04:55:01.199Z,7.61
2022-09-23T04:55:01.324Z,7.61
2022-09-23T05:00:01.676Z,7.37
2022-09-23T05:00:02.117Z,7.37
2022-09-23T05:05:01.281Z,7.34
2022-09-23T05:05:01.420Z,7.34
2022-09-23T05:10:01.652Z,7.33
2022-09-23T05:10:02.177Z,7.33
2022-09-23T05:15:01.144Z,7.46
2022-09-23T05:15:02.015Z,7.46
2022-09-23T05:20:01.130Z,7.71
2022-09-23T05:20:01.961Z,7.71
2022-09-23T05:25:01.722Z,8.06
2022-09-23T05:25:02.002Z,8.06
2022-09-23T05:30:01.301Z,8.43
2022-09-23T05:30:01.783Z,8.43
2022-09-23T05:35:01.515Z,8.71
2022-09-23T05:35:01.681Z,8.71
2022-09-23T05:40:01.673Z,8.91
2022-09-23T05:40:01.715Z,8.91
2022-09-23T05:45:01.145Z,9.08
2022-09-23T05:45:02.173Z,9.08
2022-09-23T05:50:01.476Z,9.18
2022-09-23T05:50:01.752Z,9.18
2022-09-23T05:55:01.601Z,9.26
2022-09-23T05:55:02.001Z,9.26
2022-09-23T06:00:02.454Z,9.32
2022-09-23T06:00:02.487Z,9.32
2022-09-23T06:05:01.765Z,9.39
2022-09-23T06:10:02.025Z,9.46
2022-09-23T06:15:01.315Z,9.53
2022-09-23T06:20:01.598Z,9.61
2022-09-23T06:25:02.434Z,9.46
2022-09-23T06:30:01.753Z,9.36
2022-09-23T06:35:02.599Z,9.52
2022-09-23T06:40:02.237Z,9.78
2022-09-23T06:45:02.158Z,10.05
2022-09-23T06:50:02.561Z,10.26
2022-09-23T06:55:01.688Z,10.46
2022-09-23T07:00:02.283Z,10.55
2022-09-23T07:05:01.866Z,10.63
2022-09-23T07:10:02.161Z,10.79
2022-09-23T07:15:02.369Z,10.99
2022-09-23T07:20:02.428Z,11.23
2022-09-23T07:25:01.594Z,11.41
2022-09-23T07:30:01.941Z,11.59
2022-09-23T07:35:01.892Z,11.71
2022-09-23T07:40:02.356Z,12.08
2022-09-23T07:45:02.025Z,12.19
2022-09-23T07:50:02.355Z,12.72
2022-09-23T07:55:01.764Z,13.05
2022-09-23T08:00:02.871Z,13.26
2022-09-23T08:05:02.914Z,13.15
2022-09-23T08:10:02.200Z,13.41
2022-09-23T08:15:03.621Z,13.53
2022-09-23T08:20:02.537Z,13.71
2022-09-23T08:25:02.244Z,13.92
2022-09-23T08:30:02.650Z,14.07
2022-09-23T08:35:01.971Z,14.29
2022-09-23T08:40:02.088Z,14.33
2022-09-23T08:45:02.734Z,14.4
2022-09-23T08:50:01.544Z,14.33
2022-09-23T08:55:02.343Z,14.43
2022-09-23T09:00:01.804Z,14.47
2022-09-23T09:05:02.144Z,14.53
2022-09-23T09:10:02.236Z,14.52
2022-09-23T09:15:01.942Z,14.52
2022-09-23T09:20:01.912Z,14.49
2022-09-23T09:25:01.752Z,14.48
2022-09-23T09:30:02.435Z,14.44
2022-09-23T09:35:02.167Z,14.48
2022-09-23T09:40:01.595Z,14.54
2022-09-23T09:45:02.316Z,14.48
2022-09-23T09:50:02.160Z,14.5
2022-09-23T09:55:01.562Z,14.63
2022-09-23T10:00:01.729Z,14.79
2022-09-23T10:05:02.596Z,14.75
2022-09-23T10:10:15.993Z,14.86
2022-09-23T10:15:01.789Z,15.07
2022-09-23T10:20:02.651Z,15.45
2022-09-23T10:25:01.640Z,15.83
2022-09-23T10:30:02.354Z,15.99
2022-09-23T10:35:02.161Z,16.17
2022-09-23T10:40:02.290Z,16.31
2022-09-23T10:45:01.759Z,16.35
2022-09-23T10:50:02.347Z,16.59
2022-09-23T10:55:02.547Z,16.65
2022-09-23T11:00:02.726Z,16.75
2022-09-23T11:05:02.683Z,16.75
2022-09-23T11:10:02.081Z,16.98
2022-09-23T11:15:01.499Z,17.25
2022-09-23T11:20:01.680Z,17.29
2022-09-23T11:25:03.443Z,17.45
2022-09-23T11:30:01.984Z,17.55
2022-09-23T11:35:02.007Z,17.81
2022-09-23T11:40:02.398Z,17.96
2022-09-23T11:45:01.655Z,17.9
2022-09-23T11:50:02.489Z,17.85
2022-09-23T11:55:05.655Z,17.88
2022-09-23T12:00:02.330Z,17.87
2022-09-23T12:05:02.706Z,17.87
2022-09-23T12:10:01.838Z,17.83
2022-09-23T12:15:02.407Z,17.85
2022-09-23T12:20:02.029Z,17.89
2022-09-23T12:25:01.891Z,17.84
2022-09-23T12:30:02.003Z,17.84
2022-09-23T12:35:01.905Z,17.82
2022-09-23T12:40:02.005Z,17.9
2022-09-23T12:45:02.085Z,17.87
2022-09-23T12:50:01.434Z,17.77
2022-09-23T12:55:01.992Z,17.77
2022-09-23T13:00:01.627Z,17.73
2022-09-23T13:05:02.204Z,17.74
2022-09-23T13:10:01.483Z,17.79
2022-09-23T13:15:01.375Z,17.8
2022-09-23T13:20:01.902Z,17.84
2022-09-23T13:25:01.865Z,17.83
2022-09-23T13:30:01.428Z,17.82
2022-09-23T13:35:01.463Z,17.82
2022-09-23T13:40:01.253Z,17.85
2022-09-23T13:45:02.167Z,17.82
2022-09-23T13:50:01.581Z,17.77
2022-09-23T13:55:01.331Z,17.7
2022-09-23T14:00:01.301Z,17.68
2022-09-23T14:05:01.597Z,17.61
2022-09-23T14:10:01.962Z,17.55
2022-09-23T14:15:01.741Z,17.58
2022-09-23T14:20:01.307Z,17.58
2022-09-23T14:25:02.017Z,17.53
2022-09-23T14:30:01.387Z,17.52
2022-09-23T14:35:01.301Z,17.47
2022-09-23T14:40:02.021Z,17.41
2022-09-23T14:45:02.195Z,17.44
2022-09-23T14:50:01.312Z,17.45
2022-09-23T14:55:02.124Z,17.45
2022-09-23T15:00:01.567Z,17.45
2022-09-23T15:05:01.776Z,17.45
2022-09-23T15:10:01.395Z,17.39
2022-09-23T15:15:01.958Z,17.45
2022-09-23T15:20:01.989Z,17.47
2022-09-23T15:25:01.828Z,17.41
2022-09-23T15:30:02.293Z,17.32
2022-09-23T15:35:01.453Z,17.24
2022-09-23T15:40:02.098Z,17.14
2022-09-23T15:45:02.262Z,16.98
2022-09-23T15:50:02.228Z,16.54
2022-09-23T15:55:01.760Z,16.52
2022-09-23T16:00:01.458Z,16.49
2022-09-23T16:05:01.409Z,16.4
2022-09-23T16:10:01.456Z,16.17
2022-09-23T16:15:01.559Z,16.02
2022-09-23T16:20:01.890Z,15.91
2022-09-23T16:25:01.913Z,15.74
2022-09-23T16:30:01.372Z,15.47
2022-09-23T16:35:01.626Z,15.36
2022-09-23T16:40:01.516Z,15.22
2022-09-23T16:45:02.151Z,15.14
2022-09-23T16:50:01.761Z,14.97
2022-09-23T16:55:02.134Z,14.82
2022-09-23T17:00:02.070Z,14.69
2022-09-23T17:05:01.639Z,14.64
2022-09-23T17:10:02.087Z,14.62
2022-09-23T17:15:01.309Z,14.57
2022-09-23T17:20:01.651Z,14.43
2022-09-23T17:25:01.283Z,14.37
2022-09-23T17:30:01.448Z,14.29
2022-09-23T17:35:01.816Z,14.4
2022-09-23T17:40:02.087Z,14.32
2022-09-23T17:45:01.872Z,14.24
2022-09-23T17:50:01.888Z,14.09
2022-09-23T17:55:02.107Z,14.04
2022-09-23T18:00:01.839Z,13.98
2022-09-23T18:05:01.278Z,13.86
2022-09-23T18:10:02.088Z,13.85
2022-09-23T18:15:01.381Z,13.75
2022-09-23T18:20:01.654Z,13.58
2022-09-23T18:25:13.088Z,13.43
2022-09-23T18:30:02.212Z,13.33
2022-09-23T18:35:01.852Z,13.31
2022-09-23T18:40:01.877Z,13.15
2022-09-23T18:45:01.420Z,13.04
2022-09-23T18:50:02.040Z,12.99
2022-09-23T18:55:02.073Z,12.94
2022-09-23T19:00:01.594Z,12.92
2022-09-23T19:05:01.957Z,12.92
2022-09-23T19:10:01.386Z,12.97
2022-09-23T19:15:01.720Z,12.93
2022-09-23T19:20:01.813Z,12.8
2022-09-23T19:25:01.315Z,12.71
2022-09-23T19:30:02.109Z,12.72
2022-09-23T19:35:01.623Z,12.66
2022-09-23T19:40:02.168Z,12.62
2022-09-23T19:45:01.564Z,12.57
2022-09-23T19:50:01.991Z,12.63
2022-09-23T19:55:01.519Z,12.69
2022-09-23T20:00:01.644Z,12.63
2022-09-23T20:05:02.103Z,12.48
2022-09-23T20:10:01.899Z,12.37
2022-09-23T20:15:02.263Z,12.26
2022-09-23T20:20:02.146Z,12.17
2022-09-23T20:25:02.014Z,12.08
2022-09-23T20:30:02.440Z,12.08
2022-09-23T20:35:01.771Z,12.03
2022-09-23T20:40:02.107Z,11.99
2022-09-23T20:45:02.151Z,11.92
2022-09-23T20:50:01.859Z,11.85
2022-09-23T20:55:02.183Z,11.88
2022-09-23T21:00:01.518Z,11.99
2022-09-23T21:05:02.053Z,12.08
2022-09-23T21:10:02.154Z,12.14
2022-09-23T21:15:01.437Z,12.14
2022-09-23T21:20:01.317Z,12.03
2022-09-23T21:25:27.056Z,11.86
2022-09-23T21:30:01.507Z,11.69
2022-09-23T21:35:02.169Z,11.57
2022-09-23T21:40:02.140Z,11.51
2022-09-23T21:45:01.369Z,11.53
2022-09-23T21:50:01.412Z,11.56
2022-09-23T21:55:02.122Z,11.66
2022-09-23T22:00:02.132Z,11.76
2022-09-23T22:05:01.373Z,11.78
2022-09-23T22:10:02.142Z,11.81
2022-09-23T22:15:01.596Z,11.75
2022-09-23T22:20:02.202Z,11.78
2022-09-23T22:25:01.904Z,11.7
2022-09-23T22:30:01.957Z,11.63
2022-09-23T22:35:02.080Z,11.57
2022-09-23T22:40:01.437Z,11.57
2022-09-23T22:45:02.227Z,11.55
2022-09-23T22:50:02.073Z,11.48
2022-09-23T22:55:01.685Z,11.42
2022-09-23T23:00:01.587Z,11.34
2022-09-23T23:05:01.686Z,11.24
2022-09-23T23:10:01.532Z,11.05
2022-09-23T23:15:01.389Z,10.83
2022-09-23T23:20:01.967Z,10.84
2022-09-23T23:25:01.896Z,10.75
2022-09-23T23:30:01.884Z,10.8
2022-09-23T23:35:02.013Z,10.92
2022-09-23T23:40:01.425Z,11.01
2022-09-23T23:45:01.844Z,11.1
2022-09-23T23:50:01.714Z,11.17
2022-09-23T23:55:01.750Z,11.3
